sensor_id;sensor_type;location;lat;lon;timestamp;P1;durP1;ratioP1;P2;durP2;ratioP2
49440;SDS011;35317;51.978;6.296;2023-12-20T00:04:07;9.60;;;1.83;;
49440;SDS011;35317;51.978;6.296;2023-12-20T00:09:09;5.78;;;1.05;;
49440;SDS011;35317;51.978;6.296;2023-12-20T00:14:10;11.82;;;1.50;;
49440;SDS011;35317;51.978;6.296;2023-12-20T00:19:10;10.48;;;1.65;;
49440;SDS011;35317;51.978;6.296;2023-12-20T00:24:11;10.13;;;1.60;;
49440;SDS011;35317;51.978;6.296;2023-12-20T00:29:12;19.25;;;1.90;;
49440;SDS011;35317;51.978;6.296;2023-12-20T00:34:13;12.93;;;1.40;;
49440;SDS011;35317;51.978;6.296;2023-12-20T00:39:14;9.52;;;1.65;;
49440;SDS011;35317;51.978;6.296;2023-12-20T00:44:14;8.65;;;1.90;;
49440;SDS011;35317;51.978;6.296;2023-12-20T00:49:15;10.02;;;1.95;;
49440;SDS011;35317;51.978;6.296;2023-12-20T00:54:16;11.35;;;1.90;;
49440;SDS011;35317;51.978;6.296;2023-12-20T00:59:17;11.80;;;2.50;;
49440;SDS011;35317;51.978;6.296;2023-12-20T01:04:18;14.95;;;2.72;;
49440;SDS011;35317;51.978;6.296;2023-12-20T01:09:19;12.45;;;1.90;;
49440;SDS011;35317;51.978;6.296;2023-12-20T01:14:23;25.38;;;3.33;;
49440;SDS011;35317;51.978;6.296;2023-12-20T01:19:24;18.42;;;2.95;;
49440;SDS011;35317;51.978;6.296;2023-12-20T01:24:25;10.52;;;2.78;;
49440;SDS011;35317;51.978;6.296;2023-12-20T01:29:26;14.27;;;2.80;;
49440;SDS011;35317;51.978;6.296;2023-12-20T01:34:26;16.70;;;2.67;;
49440;SDS011;35317;51.978;6.296;2023-12-20T01:39:27;18.27;;;2.60;;
49440;SDS011;35317;51.978;6.296;2023-12-20T01:44:28;11.52;;;2.13;;
49440;SDS011;35317;51.978;6.296;2023-12-20T01:49:29;20.15;;;2.95;;
49440;SDS011;35317;51.978;6.296;2023-12-20T01:54:30;15.60;;;2.55;;
49440;SDS011;35317;51.978;6.296;2023-12-20T01:59:31;14.82;;;2.83;;
49440;SDS011;35317;51.978;6.296;2023-12-20T02:04:32;14.68;;;1.65;;
49440;SDS011;35317;51.978;6.296;2023-12-20T02:09:33;10.95;;;1.95;;
49440;SDS011;35317;51.978;6.296;2023-12-20T02:14:53;25.77;;;2.33;;
49440;SDS011;35317;51.978;6.296;2023-12-20T02:19:54;19.92;;;2.38;;
49440;SDS011;35317;51.978;6.296;2023-12-20T02:24:55;11.68;;;2.20;;
49440;SDS011;35317;51.978;6.296;2023-12-20T02:29:56;16.63;;;2.70;;
49440;SDS011;35317;51.978;6.296;2023-12-20T02:34:57;13.25;;;1.70;;
49440;SDS011;35317;51.978;6.296;2023-12-20T02:39:57;15.88;;;1.90;;
49440;SDS011;35317;51.978;6.296;2023-12-20T02:44:58;14.95;;;1.80;;
49440;SDS011;35317;51.978;6.296;2023-12-20T02:49:59;10.20;;;2.40;;
49440;SDS011;35317;51.978;6.296;2023-12-20T02:55:00;22.83;;;3.08;;
49440;SDS011;35317;51.978;6.296;2023-12-20T03:00:00;15.02;;;2.53;;
49440;SDS011;35317;51.978;6.296;2023-12-20T03:05:01;16.83;;;2.40;;
49440;SDS011;35317;51.978;6.296;2023-12-20T03:10:02;21.35;;;2.50;;
49440;SDS011;35317;51.978;6.296;2023-12-20T03:15:04;17.83;;;2.40;;
49440;SDS011;35317;51.978;6.296;2023-12-20T03:20:05;21.88;;;3.13;;
49440;SDS011;35317;51.978;6.296;2023-12-20T03:25:07;22.30;;;4.50;;
49440;SDS011;35317;51.978;6.296;2023-12-20T03:30:08;19.42;;;3.85;;
49440;SDS011;35317;51.978;6.296;2023-12-20T03:35:09;12.60;;;3.13;;
49440;SDS011;35317;51.978;6.296;2023-12-20T03:40:10;19.65;;;3.72;;
49440;SDS011;35317;51.978;6.296;2023-12-20T03:45:11;18.40;;;2.90;;
49440;SDS011;35317;51.978;6.296;2023-12-20T03:50:12;11.23;;;2.85;;
49440;SDS011;35317;51.978;6.296;2023-12-20T03:55:12;13.50;;;2.30;;
49440;SDS011;35317;51.978;6.296;2023-12-20T04:00:14;9.50;;;2.20;;
49440;SDS011;35317;51.978;6.296;2023-12-20T04:05:15;16.50;;;2.50;;
49440;SDS011;35317;51.978;6.296;2023-12-20T04:10:16;21.80;;;3.30;;
49440;SDS011;35317;51.978;6.296;2023-12-20T04:15:16;21.15;;;2.80;;
49440;SDS011;35317;51.978;6.296;2023-12-20T04:20:17;19.73;;;3.20;;
49440;SDS011;35317;51.978;6.296;2023-12-20T04:25:18;22.73;;;2.33;;
49440;SDS011;35317;51.978;6.296;2023-12-20T04:30:19;12.18;;;2.50;;
49440;SDS011;35317;51.978;6.296;2023-12-20T04:35:19;16.52;;;3.03;;
49440;SDS011;35317;51.978;6.296;2023-12-20T04:40:20;27.58;;;3.25;;
49440;SDS011;35317;51.978;6.296;2023-12-20T04:45:21;27.00;;;3.00;;
49440;SDS011;35317;51.978;6.296;2023-12-20T04:50:23;22.92;;;2.75;;
49440;SDS011;35317;51.978;6.296;2023-12-20T04:55:24;26.30;;;3.45;;
49440;SDS011;35317;51.978;6.296;2023-12-20T05:00:25;9.98;;;2.60;;
49440;SDS011;35317;51.978;6.296;2023-12-20T05:05:26;12.18;;;2.67;;
49440;SDS011;35317;51.978;6.296;2023-12-20T05:10:26;17.65;;;3.08;;
49440;SDS011;35317;51.978;6.296;2023-12-20T05:15:28;25.33;;;2.92;;
49440;SDS011;35317;51.978;6.296;2023-12-20T05:20:28;21.70;;;2.97;;
49440;SDS011;35317;51.978;6.296;2023-12-20T05:25:29;22.90;;;2.78;;
49440;SDS011;35317;51.978;6.296;2023-12-20T05:30:30;17.70;;;2.35;;
49440;SDS011;35317;51.978;6.296;2023-12-20T05:35:30;18.92;;;2.83;;
49440;SDS011;35317;51.978;6.296;2023-12-20T05:40:31;23.42;;;3.22;;
49440;SDS011;35317;51.978;6.296;2023-12-20T05:45:32;15.98;;;2.70;;
49440;SDS011;35317;51.978;6.296;2023-12-20T05:50:33;22.13;;;2.88;;
49440;SDS011;35317;51.978;6.296;2023-12-20T05:55:35;13.45;;;2.83;;
49440;SDS011;35317;51.978;6.296;2023-12-20T06:00:35;27.83;;;3.90;;
49440;SDS011;35317;51.978;6.296;2023-12-20T06:05:36;20.77;;;3.85;;
49440;SDS011;35317;51.978;6.296;2023-12-20T06:10:37;17.70;;;4.65;;
49440;SDS011;35317;51.978;6.296;2023-12-20T06:15:37;19.30;;;2.72;;
49440;SDS011;35317;51.978;6.296;2023-12-20T06:20:39;14.68;;;2.47;;
49440;SDS011;35317;51.978;6.296;2023-12-20T06:25:39;16.63;;;2.80;;
49440;SDS011;35317;51.978;6.296;2023-12-20T06:30:40;18.23;;;2.83;;
49440;SDS011;35317;51.978;6.296;2023-12-20T06:35:41;19.33;;;2.83;;
49440;SDS011;35317;51.978;6.296;2023-12-20T06:40:42;19.85;;;3.00;;
49440;SDS011;35317;51.978;6.296;2023-12-20T06:45:42;27.38;;;3.50;;
49440;SDS011;35317;51.978;6.296;2023-12-20T06:50:43;22.42;;;3.47;;
49440;SDS011;35317;51.978;6.296;2023-12-20T06:55:44;20.40;;;2.85;;
49440;SDS011;35317;51.978;6.296;2023-12-20T07:00:45;24.02;;;2.85;;
49440;SDS011;35317;51.978;6.296;2023-12-20T07:05:46;17.20;;;3.15;;
49440;SDS011;35317;51.978;6.296;2023-12-20T07:10:46;25.25;;;3.88;;
49440;SDS011;35317;51.978;6.296;2023-12-20T07:15:47;17.40;;;2.92;;
49440;SDS011;35317;51.978;6.296;2023-12-20T07:20:48;18.25;;;3.13;;
49440;SDS011;35317;51.978;6.296;2023-12-20T07:25:49;21.20;;;2.30;;
49440;SDS011;35317;51.978;6.296;2023-12-20T07:30:50;25.60;;;3.40;;
49440;SDS011;35317;51.978;6.296;2023-12-20T07:35:51;10.05;;;2.70;;
49440;SDS011;35317;51.978;6.296;2023-12-20T07:40:52;19.15;;;2.33;;
49440;SDS011;35317;51.978;6.296;2023-12-20T07:45:52;18.40;;;3.05;;
49440;SDS011;35317;51.978;6.296;2023-12-20T07:50:53;18.92;;;2.83;;
49440;SDS011;35317;51.978;6.296;2023-12-20T07:55:54;10.23;;;1.85;;
49440;SDS011;35317;51.978;6.296;2023-12-20T08:00:55;18.50;;;3.13;;
49440;SDS011;35317;51.978;6.296;2023-12-20T08:05:56;11.55;;;2.38;;
49440;SDS011;35317;51.978;6.296;2023-12-20T08:10:59;21.80;;;2.45;;
49440;SDS011;35317;51.978;6.296;2023-12-20T08:16:00;18.83;;;2.22;;
49440;SDS011;35317;51.978;6.296;2023-12-20T08:21:03;12.25;;;2.25;;
49440;SDS011;35317;51.978;6.296;2023-12-20T08:26:04;19.88;;;2.42;;
49440;SDS011;35317;51.978;6.296;2023-12-20T08:31:06;14.65;;;2.55;;
49440;SDS011;35317;51.978;6.296;2023-12-20T08:36:15;22.92;;;2.90;;
49440;SDS011;35317;51.978;6.296;2023-12-20T08:41:18;11.55;;;2.97;;
49440;SDS011;35317;51.978;6.296;2023-12-20T08:46:18;12.48;;;2.72;;
49440;SDS011;35317;51.978;6.296;2023-12-20T08:51:19;15.77;;;2.15;;
49440;SDS011;35317;51.978;6.296;2023-12-20T08:56:21;16.20;;;2.83;;
49440;SDS011;35317;51.978;6.296;2023-12-20T09:01:22;15.70;;;2.40;;
49440;SDS011;35317;51.978;6.296;2023-12-20T09:06:22;16.63;;;2.65;;
49440;SDS011;35317;51.978;6.296;2023-12-20T09:11:24;10.73;;;2.88;;
49440;SDS011;35317;51.978;6.296;2023-12-20T09:16:24;15.40;;;2.30;;
49440;SDS011;35317;51.978;6.296;2023-12-20T09:21:25;29.92;;;3.13;;
49440;SDS011;35317;51.978;6.296;2023-12-20T09:26:26;17.80;;;2.70;;
49440;SDS011;35317;51.978;6.296;2023-12-20T09:31:27;22.00;;;2.50;;
49440;SDS011;35317;51.978;6.296;2023-12-20T09:36:28;17.73;;;2.88;;
49440;SDS011;35317;51.978;6.296;2023-12-20T09:41:29;17.77;;;2.53;;
49440;SDS011;35317;51.978;6.296;2023-12-20T09:46:38;22.23;;;2.60;;
49440;SDS011;35317;51.978;6.296;2023-12-20T09:51:46;19.50;;;3.03;;
49440;SDS011;35317;51.978;6.296;2023-12-20T09:56:47;13.70;;;3.03;;
49440;SDS011;35317;51.978;6.296;2023-12-20T10:01:48;11.60;;;2.47;;
49440;SDS011;35317;51.978;6.296;2023-12-20T10:06:50;22.77;;;3.20;;
49440;SDS011;35317;51.978;6.296;2023-12-20T10:11:54;13.73;;;2.65;;
49440;SDS011;35317;51.978;6.296;2023-12-20T10:17:01;19.55;;;2.60;;
49440;SDS011;35317;51.978;6.296;2023-12-20T10:22:06;16.67;;;3.17;;
49440;SDS011;35317;51.978;6.296;2023-12-20T10:27:07;18.98;;;3.08;;
49440;SDS011;35317;51.978;6.296;2023-12-20T10:32:24;20.80;;;2.85;;
49440;SDS011;35317;51.978;6.296;2023-12-20T10:37:27;19.33;;;2.42;;
49440;SDS011;35317;51.978;6.296;2023-12-20T10:42:27;24.63;;;3.28;;
49440;SDS011;35317;51.978;6.296;2023-12-20T10:47:30;24.80;;;2.83;;
49440;SDS011;35317;51.978;6.296;2023-12-20T10:52:32;17.27;;;2.80;;
49440;SDS011;35317;51.978;6.296;2023-12-20T10:57:35;20.70;;;2.90;;
49440;SDS011;35317;51.978;6.296;2023-12-20T11:02:39;21.35;;;3.05;;
49440;SDS011;35317;51.978;6.296;2023-12-20T11:07:46;20.77;;;3.70;;
49440;SDS011;35317;51.978;6.296;2023-12-20T11:12:53;19.75;;;2.58;;
49440;SDS011;35317;51.978;6.296;2023-12-20T11:18:03;28.25;;;3.13;;
49440;SDS011;35317;51.978;6.296;2023-12-20T11:23:06;20.63;;;2.42;;
49440;SDS011;35317;51.978;6.296;2023-12-20T11:28:09;20.48;;;2.80;;
49440;SDS011;35317;51.978;6.296;2023-12-20T11:33:11;25.48;;;2.95;;
49440;SDS011;35317;51.978;6.296;2023-12-20T11:38:13;24.58;;;3.22;;
49440;SDS011;35317;51.978;6.296;2023-12-20T11:43:30;21.85;;;3.38;;
49440;SDS011;35317;51.978;6.296;2023-12-20T11:48:39;18.00;;;2.80;;
49440;SDS011;35317;51.978;6.296;2023-12-20T11:53:40;20.58;;;3.80;;
49440;SDS011;35317;51.978;6.296;2023-12-20T12:03:45;18.10;;;2.95;;
49440;SDS011;35317;51.978;6.296;2023-12-20T12:08:46;20.90;;;3.03;;
49440;SDS011;35317;51.978;6.296;2023-12-20T12:13:47;22.90;;;3.05;;
49440;SDS011;35317;51.978;6.296;2023-12-20T12:18:55;20.88;;;3.22;;
49440;SDS011;35317;51.978;6.296;2023-12-20T12:24:08;16.63;;;3.58;;
49440;SDS011;35317;51.978;6.296;2023-12-20T12:29:09;14.43;;;2.17;;
49440;SDS011;35317;51.978;6.296;2023-12-20T12:34:10;18.23;;;2.17;;
49440;SDS011;35317;51.978;6.296;2023-12-20T12:39:15;13.85;;;2.55;;
49440;SDS011;35317;51.978;6.296;2023-12-20T12:44:18;14.48;;;3.28;;
49440;SDS011;35317;51.978;6.296;2023-12-20T12:49:19;19.98;;;2.83;;
49440;SDS011;35317;51.978;6.296;2023-12-20T12:54:21;19.27;;;2.30;;
49440;SDS011;35317;51.978;6.296;2023-12-20T12:59:22;14.23;;;3.00;;
49440;SDS011;35317;51.978;6.296;2023-12-20T13:04:23;20.08;;;3.08;;
49440;SDS011;35317;51.978;6.296;2023-12-20T13:09:24;19.65;;;3.65;;
49440;SDS011;35317;51.978;6.296;2023-12-20T13:14:26;19.05;;;2.67;;
49440;SDS011;35317;51.978;6.296;2023-12-20T13:19:27;17.73;;;2.33;;
49440;SDS011;35317;51.978;6.296;2023-12-20T13:24:28;21.05;;;2.50;;
49440;SDS011;35317;51.978;6.296;2023-12-20T13:29:29;23.85;;;2.88;;
49440;SDS011;35317;51.978;6.296;2023-12-20T13:34:30;9.80;;;2.00;;
49440;SDS011;35317;51.978;6.296;2023-12-20T13:39:30;20.23;;;2.60;;
49440;SDS011;35317;51.978;6.296;2023-12-20T13:44:31;19.02;;;2.80;;
49440;SDS011;35317;51.978;6.296;2023-12-20T13:49:32;18.48;;;2.80;;
49440;SDS011;35317;51.978;6.296;2023-12-20T13:54:33;19.38;;;2.75;;
49440;SDS011;35317;51.978;6.296;2023-12-20T13:59:34;17.58;;;2.53;;
49440;SDS011;35317;51.978;6.296;2023-12-20T14:04:35;16.42;;;2.53;;
49440;SDS011;35317;51.978;6.296;2023-12-20T14:09:36;19.08;;;2.60;;
49440;SDS011;35317;51.978;6.296;2023-12-20T14:14:36;19.73;;;2.28;;
49440;SDS011;35317;51.978;6.296;2023-12-20T14:19:37;15.48;;;4.07;;
49440;SDS011;35317;51.978;6.296;2023-12-20T14:24:39;18.60;;;4.85;;
49440;SDS011;35317;51.978;6.296;2023-12-20T14:29:40;16.55;;;2.63;;
49440;SDS011;35317;51.978;6.296;2023-12-20T14:34:41;23.88;;;2.78;;
49440;SDS011;35317;51.978;6.296;2023-12-20T14:39:42;18.33;;;3.45;;
49440;SDS011;35317;51.978;6.296;2023-12-20T14:44:43;15.45;;;3.92;;
49440;SDS011;35317;51.978;6.296;2023-12-20T14:49:44;17.70;;;2.85;;
49440;SDS011;35317;51.978;6.296;2023-12-20T14:54:44;15.65;;;2.45;;
49440;SDS011;35317;51.978;6.296;2023-12-20T14:59:45;19.50;;;2.83;;
49440;SDS011;35317;51.978;6.296;2023-12-20T15:04:46;17.02;;;2.22;;
49440;SDS011;35317;51.978;6.296;2023-12-20T15:09:47;14.35;;;2.97;;
49440;SDS011;35317;51.978;6.296;2023-12-20T15:14:49;11.82;;;2.40;;
49440;SDS011;35317;51.978;6.296;2023-12-20T15:19:49;17.90;;;2.30;;
49440;SDS011;35317;51.978;6.296;2023-12-20T15:24:50;11.75;;;2.30;;
49440;SDS011;35317;51.978;6.296;2023-12-20T15:29:51;18.85;;;3.08;;
49440;SDS011;35317;51.978;6.296;2023-12-20T15:34:52;13.48;;;2.80;;
49440;SDS011;35317;51.978;6.296;2023-12-20T15:39:53;12.52;;;2.22;;
49440;SDS011;35317;51.978;6.296;2023-12-20T15:44:54;14.23;;;2.88;;
49440;SDS011;35317;51.978;6.296;2023-12-20T15:49:55;12.88;;;2.05;;
49440;SDS011;35317;51.978;6.296;2023-12-20T15:54:55;13.40;;;2.30;;
49440;SDS011;35317;51.978;6.296;2023-12-20T15:59:56;20.77;;;2.67;;
49440;SDS011;35317;51.978;6.296;2023-12-20T16:04:57;22.02;;;3.13;;
49440;SDS011;35317;51.978;6.296;2023-12-20T16:09:58;14.55;;;3.00;;
49440;SDS011;35317;51.978;6.296;2023-12-20T16:15:00;10.52;;;1.92;;
49440;SDS011;35317;51.978;6.296;2023-12-20T16:20:01;10.13;;;2.70;;
49440;SDS011;35317;51.978;6.296;2023-12-20T16:25:03;16.83;;;3.28;;
49440;SDS011;35317;51.978;6.296;2023-12-20T16:30:05;15.35;;;2.75;;
49440;SDS011;35317;51.978;6.296;2023-12-20T16:35:06;19.25;;;2.92;;
49440;SDS011;35317;51.978;6.296;2023-12-20T16:40:07;16.55;;;3.58;;
49440;SDS011;35317;51.978;6.296;2023-12-20T16:45:09;29.08;;;3.40;;
49440;SDS011;35317;51.978;6.296;2023-12-20T16:50:10;12.23;;;2.67;;
49440;SDS011;35317;51.978;6.296;2023-12-20T16:55:11;16.35;;;3.45;;
49440;SDS011;35317;51.978;6.296;2023-12-20T17:00:14;12.27;;;3.13;;
49440;SDS011;35317;51.978;6.296;2023-12-20T17:05:16;17.23;;;4.07;;
49440;SDS011;35317;51.978;6.296;2023-12-20T17:10:17;16.50;;;3.30;;
49440;SDS011;35317;51.978;6.296;2023-12-20T17:15:18;15.15;;;3.90;;
49440;SDS011;35317;51.978;6.296;2023-12-20T17:20:19;16.40;;;4.25;;
49440;SDS011;35317;51.978;6.296;2023-12-20T17:25:20;18.02;;;4.45;;
49440;SDS011;35317;51.978;6.296;2023-12-20T17:30:22;16.58;;;3.92;;
49440;SDS011;35317;51.978;6.296;2023-12-20T17:35:22;22.95;;;3.90;;
49440;SDS011;35317;51.978;6.296;2023-12-20T17:40:23;16.30;;;4.25;;
49440;SDS011;35317;51.978;6.296;2023-12-20T17:45:24;13.88;;;4.43;;
49440;SDS011;35317;51.978;6.296;2023-12-20T17:50:25;16.90;;;4.28;;
49440;SDS011;35317;51.978;6.296;2023-12-20T17:55:26;12.18;;;3.90;;
49440;SDS011;35317;51.978;6.296;2023-12-20T18:00:27;19.10;;;3.72;;
49440;SDS011;35317;51.978;6.296;2023-12-20T18:05:31;19.30;;;4.40;;
49440;SDS011;35317;51.978;6.296;2023-12-20T18:10:32;20.55;;;4.75;;
49440;SDS011;35317;51.978;6.296;2023-12-20T18:15:33;11.18;;;4.47;;
49440;SDS011;35317;51.978;6.296;2023-12-20T18:20:34;11.13;;;4.55;;
49440;SDS011;35317;51.978;6.296;2023-12-20T18:25:35;24.20;;;5.57;;
49440;SDS011;35317;51.978;6.296;2023-12-20T18:30:35;15.60;;;5.30;;
49440;SDS011;35317;51.978;6.296;2023-12-20T18:35:36;16.98;;;5.47;;
49440;SDS011;35317;51.978;6.296;2023-12-20T18:40:37;12.73;;;4.57;;
49440;SDS011;35317;51.978;6.296;2023-12-20T18:45:38;16.65;;;5.53;;
49440;SDS011;35317;51.978;6.296;2023-12-20T18:50:40;13.32;;;5.15;;
49440;SDS011;35317;51.978;6.296;2023-12-20T18:55:40;14.90;;;5.60;;
49440;SDS011;35317;51.978;6.296;2023-12-20T19:00:41;19.90;;;5.25;;
49440;SDS011;35317;51.978;6.296;2023-12-20T19:05:42;20.50;;;6.38;;
49440;SDS011;35317;51.978;6.296;2023-12-20T19:10:43;18.65;;;6.10;;
49440;SDS011;35317;51.978;6.296;2023-12-20T19:15:43;14.77;;;5.55;;
49440;SDS011;35317;51.978;6.296;2023-12-20T19:20:44;19.73;;;7.30;;
49440;SDS011;35317;51.978;6.296;2023-12-20T19:25:45;15.65;;;6.60;;
49440;SDS011;35317;51.978;6.296;2023-12-20T19:30:46;24.70;;;7.70;;
49440;SDS011;35317;51.978;6.296;2023-12-20T19:35:47;14.45;;;7.03;;
49440;SDS011;35317;51.978;6.296;2023-12-20T19:40:47;21.30;;;6.63;;
49440;SDS011;35317;51.978;6.296;2023-12-20T19:45:50;20.33;;;6.25;;
49440;SDS011;35317;51.978;6.296;2023-12-20T19:50:50;18.65;;;6.82;;
49440;SDS011;35317;51.978;6.296;2023-12-20T19:55:51;17.05;;;5.70;;
49440;SDS011;35317;51.978;6.296;2023-12-20T20:00:52;21.48;;;6.97;;
49440;SDS011;35317;51.978;6.296;2023-12-20T20:05:53;19.13;;;6.95;;
49440;SDS011;35317;51.978;6.296;2023-12-20T20:10:54;13.70;;;6.60;;
49440;SDS011;35317;51.978;6.296;2023-12-20T20:15:54;18.23;;;6.90;;
49440;SDS011;35317;51.978;6.296;2023-12-20T20:20:58;23.60;;;6.85;;
49440;SDS011;35317;51.978;6.296;2023-12-20T20:25:59;19.00;;;5.83;;
49440;SDS011;35317;51.978;6.296;2023-12-20T20:31:00;17.48;;;6.55;;
49440;SDS011;35317;51.978;6.296;2023-12-20T20:36:01;23.60;;;8.07;;
49440;SDS011;35317;51.978;6.296;2023-12-20T20:41:04;16.90;;;6.07;;
49440;SDS011;35317;51.978;6.296;2023-12-20T20:46:05;6.32;;;3.03;;
49440;SDS011;35317;51.978;6.296;2023-12-20T20:51:06;11.98;;;4.65;;
49440;SDS011;35317;51.978;6.296;2023-12-20T20:56:07;15.13;;;5.22;;
49440;SDS011;35317;51.978;6.296;2023-12-20T21:01:08;11.32;;;5.03;;
49440;SDS011;35317;51.978;6.296;2023-12-20T21:06:09;16.10;;;5.05;;
49440;SDS011;35317;51.978;6.296;2023-12-20T21:11:11;12.73;;;3.33;;
49440;SDS011;35317;51.978;6.296;2023-12-20T21:16:14;8.07;;;4.03;;
49440;SDS011;35317;51.978;6.296;2023-12-20T21:21:14;18.00;;;5.88;;
49440;SDS011;35317;51.978;6.296;2023-12-20T21:26:15;9.15;;;3.70;;
49440;SDS011;35317;51.978;6.296;2023-12-20T21:31:16;11.25;;;4.65;;
49440;SDS011;35317;51.978;6.296;2023-12-20T21:36:17;10.55;;;3.97;;
49440;SDS011;35317;51.978;6.296;2023-12-20T21:41:17;13.35;;;4.47;;
49440;SDS011;35317;51.978;6.296;2023-12-20T21:46:18;10.57;;;4.55;;
49440;SDS011;35317;51.978;6.296;2023-12-20T21:51:19;10.77;;;4.45;;
49440;SDS011;35317;51.978;6.296;2023-12-20T21:56:20;11.38;;;5.15;;
49440;SDS011;35317;51.978;6.296;2023-12-20T22:01:21;10.77;;;5.28;;
49440;SDS011;35317;51.978;6.296;2023-12-20T22:06:22;9.00;;;5.07;;
49440;SDS011;35317;51.978;6.296;2023-12-20T22:11:23;13.25;;;4.50;;
49440;SDS011;35317;51.978;6.296;2023-12-20T22:16:24;16.88;;;4.85;;
49440;SDS011;35317;51.978;6.296;2023-12-20T22:21:25;4.50;;;2.60;;
49440;SDS011;35317;51.978;6.296;2023-12-20T22:26:26;13.55;;;5.07;;
49440;SDS011;35317;51.978;6.296;2023-12-20T22:31:26;10.00;;;4.40;;
49440;SDS011;35317;51.978;6.296;2023-12-20T22:36:27;16.45;;;4.95;;
49440;SDS011;35317;51.978;6.296;2023-12-20T22:41:28;12.25;;;4.85;;
49440;SDS011;35317;51.978;6.296;2023-12-20T22:46:29;9.82;;;4.50;;
49440;SDS011;35317;51.978;6.296;2023-12-20T22:51:30;9.90;;;3.85;;
49440;SDS011;35317;51.978;6.296;2023-12-20T22:56:33;12.30;;;3.97;;
49440;SDS011;35317;51.978;6.296;2023-12-20T23:01:34;11.23;;;4.00;;
49440;SDS011;35317;51.978;6.296;2023-12-20T23:06:35;8.27;;;3.92;;
49440;SDS011;35317;51.978;6.296;2023-12-20T23:11:36;9.88;;;3.97;;
49440;SDS011;35317;51.978;6.296;2023-12-20T23:16:36;14.10;;;4.93;;
49440;SDS011;35317;51.978;6.296;2023-12-20T23:21:38;13.52;;;4.57;;
49440;SDS011;35317;51.978;6.296;2023-12-20T23:26:39;17.83;;;5.55;;
49440;SDS011;35317;51.978;6.296;2023-12-20T23:31:39;8.45;;;4.80;;
49440;SDS011;35317;51.978;6.296;2023-12-20T23:36:40;7.53;;;4.57;;
49440;SDS011;35317;51.978;6.296;2023-12-20T23:41:41;11.05;;;3.97;;
49440;SDS011;35317;51.978;6.296;2023-12-20T23:46:42;9.95;;;4.88;;
49440;SDS011;35317;51.978;6.296;2023-12-20T23:51:43;11.85;;;4.57;;
49440;SDS011;35317;51.978;6.296;2023-12-20T23:56:46;14.57;;;4.85;;
